Time;durP1;ratioP1;P1;durP2;ratioP2;P2;SDS_P1;SDS_P2;PMS_P1;PMS_P2;Temp;Humidity;BMP_temperature;BMP_pressure;BME280_temperature;BME280_humidity;BME280_pressure;Samples;Min_cycle;Max_cycle;Signal;HPM_P1;HPM_P2
2022/06/19 00:01:09;;;;;;;2.72;2.08;;;;;;;20.93;96.87;100118.63;6128211;28;20611;-93
2022/06/19 00:04:12;;;;;;;2.88;2.10;;;;;;;20.86;98.75;100106.25;6126182;28;20401;-93
2022/06/19 00:07:15;;;;;;;3.95;2.40;;;;;;;20.80;99.23;100108.91;6141021;28;20055;-94
2022/06/19 00:10:18;;;;;;;3.15;2.10;;;;;;;20.73;99.31;100098.34;6135159;28;20113;-93
2022/06/19 00:13:21;;;;;;;3.42;2.08;;;;;;;20.65;100.00;100091.44;6148454;28;20786;-93
2022/06/19 00:16:23;;;;;;;4.78;2.30;;;;;;;20.59;100.00;100086.97;6133305;28;20122;-94
2022/06/19 00:19:26;;;;;;;4.90;2.20;;;;;;;20.55;100.00;100071.81;6136405;28;20120;-94
2022/06/19 00:22:28;;;;;;;3.00;2.00;;;;;;;20.44;100.00;100063.41;6132929;28;20039;-93
2022/06/19 00:25:30;;;;;;;3.50;2.00;;;;;;;20.37;100.00;100052.09;6133865;28;20045;-94
2022/06/19 00:28:32;;;;;;;2.63;2.40;;;;;;;20.30;100.00;100038.09;6145096;28;20054;-94
2022/06/19 00:31:34;;;;;;;4.97;2.30;;;;;;;20.22;100.00;100040.88;6132454;28;20073;-94
2022/06/19 00:34:38;;;;;;;3.65;2.45;;;;;;;20.16;100.00;100036.44;6131841;28;20051;-94
2022/06/19 00:37:40;;;;;;;4.03;2.55;;;;;;;20.10;100.00;100031.94;6126125;28;20051;-94
2022/06/19 00:40:42;;;;;;;2.95;2.53;;;;;;;20.04;100.00;100025.66;6132684;28;20043;-94
2022/06/19 00:44:11;;;;;;;4.97;2.50;;;;;;;19.99;100.00;100013.09;6133311;28;20047;-94
2022/06/19 00:47:16;;;;;;;3.03;2.20;;;;;;;19.94;100.00;100010.25;6124323;28;20739;-94
2022/06/19 00:50:25;;;;;;;5.78;2.53;;;;;;;19.87;100.00;100008.59;6124820;28;20040;-94
2022/06/19 00:53:32;;;;;;;3.60;2.45;;;;;;;19.80;100.00;99998.09;6136352;28;20050;-93
2022/06/19 00:56:34;;;;;;;3.90;2.60;;;;;;;19.75;100.00;100001.28;6138279;28;20545;-93
2022/06/19 00:59:38;;;;;;;5.10;2.40;;;;;;;19.68;100.00;100004.88;6137924;28;20062;-93
2022/06/19 01:02:45;;;;;;;5.07;2.42;;;;;;;19.65;100.00;99997.34;6139128;28;20040;-93
2022/06/19 01:05:48;;;;;;;3.15;2.30;;;;;;;19.60;100.00;99992.66;6138117;28;20047;-94
2022/06/19 01:08:52;;;;;;;5.43;2.28;;;;;;;19.56;100.00;99992.25;6136913;28;20044;-94
2022/06/19 01:11:54;;;;;;;2.58;2.15;;;;;;;19.55;100.00;99982.75;6135073;28;20682;-93
2022/06/19 01:15:06;;;;;;;4.57;2.40;;;;;;;19.53;100.00;99984.78;6133576;28;20484;-94
2022/06/19 01:18:10;;;;;;;4.63;2.00;;;;;;;19.51;100.00;99978.91;6138740;28;20070;-93
2022/06/19 01:21:44;;;;;;;7.10;2.80;;;;;;;19.52;100.00;99977.88;6133818;28;20120;-94
2022/06/19 01:25:13;;;;;;;3.72;2.47;;;;;;;19.53;100.00;99971.63;6123276;28;20058;-94
2022/06/19 01:31:55;;;;;;;5.05;3.00;;;;;;;19.47;100.00;99959.28;6129301;28;20059;-93
2022/06/19 01:35:00;;;;;;;4.15;2.78;;;;;;;19.46;100.00;99955.03;6131041;28;20855;-94
2022/06/19 01:38:09;;;;;;;4.35;2.75;;;;;;;19.45;100.00;99949.97;6128973;28;20736;-93
2022/06/19 01:41:15;;;;;;;3.78;2.38;;;;;;;19.42;100.00;99938.03;6131571;28;20058;-94
2022/06/19 01:44:17;;;;;;;3.70;2.40;;;;;;;19.40;100.00;99936.63;6137450;28;20043;-94
2022/06/19 01:47:22;;;;;;;5.03;2.47;;;;;;;19.36;100.00;99937.00;6131550;28;20041;-94
2022/06/19 01:50:28;;;;;;;4.97;2.42;;;;;;;19.34;100.00;99930.34;6129611;28;20097;-93
2022/06/19 01:54:01;;;;;;;5.78;3.17;;;;;;;19.33;100.00;99918.22;6138852;28;20043;-93
2022/06/19 01:57:06;;;;;;;3.65;2.22;;;;;;;19.33;100.00;99910.34;6056387;29;20541;-93
2022/06/19 02:00:16;;;;;;;2.70;2.22;;;;;;;19.31;100.00;99907.09;6063181;29;20521;-94
2022/06/19 02:03:44;;;;;;;4.38;2.67;;;;;;;19.30;100.00;99897.59;6052307;29;20330;-94
2022/06/19 02:06:50;;;;;;;6.15;2.40;;;;;;;19.29;100.00;99894.16;6055589;29;20131;-94
2022/06/19 02:09:54;;;;;;;3.05;2.50;;;;;;;19.27;100.00;99898.78;6059848;29;20060;-94
2022/06/19 02:12:59;;;;;;;3.78;2.28;;;;;;;19.27;100.00;99895.38;6050778;29;20056;-93
2022/06/19 02:16:06;;;;;;;4.18;2.60;;;;;;;19.23;100.00;99894.94;6055189;29;20045;-93
2022/06/19 02:19:09;;;;;;;2.78;2.40;;;;;;;19.17;100.00;99887.84;6048093;29;20056;-94
2022/06/19 02:22:13;;;;;;;4.72;3.00;;;;;;;19.12;100.00;99880.53;6060903;29;20060;-94
2022/06/19 02:25:15;;;;;;;5.88;2.55;;;;;;;19.10;100.00;99884.34;6052814;29;20055;-93
2022/06/19 02:28:18;;;;;;;5.53;2.63;;;;;;;19.09;100.00;99877.50;6130995;28;20520;-94
2022/06/19 02:31:21;;;;;;;3.78;2.35;;;;;;;19.09;100.00;99878.31;6132354;28;20043;-94
2022/06/19 02:34:29;;;;;;;4.25;2.20;;;;;;;19.07;100.00;99882.13;6135019;28;20043;-94
2022/06/19 02:37:36;;;;;;;2.60;2.40;;;;;;;19.04;100.00;99866.78;6135284;28;20043;-93
2022/06/19 02:41:09;;;;;;;2.88;2.10;;;;;;;19.03;100.00;99873.84;6132840;28;20043;-93
2022/06/19 02:44:12;;;;;;;2.72;2.05;;;;;;;19.01;100.00;99864.56;6125576;28;20764;-93
2022/06/19 02:47:16;;;;;;;5.43;2.53;;;;;;;18.95;100.00;99868.72;6131202;28;20043;-93
2022/06/19 02:50:23;;;;;;;6.82;2.40;;;;;;;18.93;100.00;99863.69;6127529;28;20118;-93
2022/06/19 02:53:26;;;;;;;3.15;1.98;;;;;;;18.91;100.00;99863.06;6139749;28;20133;-93
2022/06/19 02:56:28;;;;;;;4.05;2.65;;;;;;;18.89;100.00;99859.03;6137256;28;20507;-93
2022/06/19 02:59:30;;;;;;;4.25;3.20;;;;;;;18.89;100.00;99848.53;6143379;28;20038;-93
2022/06/19 03:02:32;;;;;;;7.53;3.78;;;;;;;18.86;100.00;99841.06;6138315;28;20579;-93
2022/06/19 03:05:36;;;;;;;4.15;2.13;;;;;;;18.85;100.00;99839.41;6143649;28;20186;-93
2022/06/19 03:08:38;;;;;;;2.22;1.80;;;;;;;18.84;100.00;99843.06;6146909;28;20043;-93
2022/06/19 03:11:40;;;;;;;3.13;1.77;;;;;;;18.78;100.00;99834.16;6146447;28;20493;-93
2022/06/19 03:14:44;;;;;;;2.90;2.10;;;;;;;18.72;100.00;99827.81;6134666;28;20445;-93
2022/06/19 03:17:46;;;;;;;3.83;1.92;;;;;;;18.71;100.00;99817.53;6149176;28;20077;-93
2022/06/19 03:20:48;;;;;;;3.45;1.90;;;;;;;18.64;100.00;99820.09;6135337;28;20127;-92
2022/06/19 03:23:50;;;;;;;2.75;2.20;;;;;;;18.58;100.00;99812.16;6127650;28;20084;-93
2022/06/19 03:26:51;;;;;;;3.08;1.98;;;;;;;18.52;100.00;99817.19;6129707;28;20051;-93
2022/06/19 03:29:53;;;;;;;4.22;1.80;;;;;;;18.49;100.00;99811.53;6131819;28;20425;-92
2022/06/19 03:32:55;;;;;;;2.17;1.67;;;;;;;18.48;100.00;99804.63;6125287;28;20051;-93
2022/06/19 03:35:57;;;;;;;3.13;2.00;;;;;;;18.48;100.00;99804.63;6126934;28;20047;-93
2022/06/19 03:39:00;;;;;;;2.10;1.90;;;;;;;18.52;100.00;99798.84;6133208;28;20073;-93
2022/06/19 03:42:03;;;;;;;2.08;1.60;;;;;;;18.55;100.00;99781.91;6152101;28;20597;-92
2022/06/19 03:45:07;;;;;;;1.70;1.60;;;;;;;18.61;100.00;99775.13;6135881;28;20544;-92
2022/06/19 03:48:12;;;;;;;2.97;2.25;;;;;;;18.65;100.00;99758.78;6133241;28;20043;-92
2022/06/19 03:51:16;;;;;;;2.20;1.80;;;;;;;18.64;100.00;99744.06;6149713;28;20587;-92
2022/06/19 03:54:18;;;;;;;2.90;1.80;;;;;;;18.70;100.00;99737.25;6131720;28;20509;-93
2022/06/19 03:57:20;;;;;;;2.08;1.88;;;;;;;18.66;100.00;99752.56;6141582;28;20043;-92
2022/06/19 04:00:22;;;;;;;3.22;2.03;;;;;;;18.61;100.00;99757.56;6134540;28;20055;-93
2022/06/19 04:03:24;;;;;;;1.98;1.70;;;;;;;18.56;100.00;99752.09;6138658;28;20069;-93
2022/06/19 04:06:28;;;;;;;2.92;2.00;;;;;;;18.51;100.00;99750.03;6124880;28;20371;-93
2022/06/19 04:09:30;;;;;;;3.50;2.30;;;;;;;18.48;100.00;99739.13;6141160;28;20035;-93
2022/06/19 04:12:32;;;;;;;2.08;1.85;;;;;;;18.46;100.00;99751.63;6124493;28;20052;-93
2022/06/19 04:15:35;;;;;;;3.20;1.90;;;;;;;18.46;100.00;99741.16;6134863;28;20426;-92
2022/06/19 04:18:37;;;;;;;3.08;1.90;;;;;;;18.47;100.00;99748.81;6140405;28;20718;-93
2022/06/19 04:21:43;;;;;;;3.88;2.00;;;;;;;18.51;100.00;99736.13;6136971;28;20499;-93
2022/06/19 04:24:45;;;;;;;2.65;2.00;;;;;;;18.55;100.00;99733.94;6131030;28;20126;-93
2022/06/19 04:27:48;;;;;;;2.53;1.98;;;;;;;18.58;100.00;99736.97;6131891;28;20044;-93
2022/06/19 04:30:55;;;;;;;3.03;2.20;;;;;;;18.57;100.00;99750.28;6144563;28;20501;-93
2022/06/19 04:33:57;;;;;;;3.60;2.00;;;;;;;18.62;100.00;99771.47;6134537;28;20035;-92
2022/06/19 04:37:00;;;;;;;2.88;2.03;;;;;;;18.66;100.00;99804.19;6119586;28;20050;-93
2022/06/19 04:40:02;;;;;;;4.72;2.45;;;;;;;18.71;100.00;99802.59;6131213;28;20187;-93
2022/06/19 04:43:04;;;;;;;2.35;1.80;;;;;;;18.58;100.00;99755.31;6133773;28;20078;-94
2022/06/19 04:46:07;;;;;;;3.60;2.03;;;;;;;18.58;100.00;99728.28;6141626;28;20050;-93
2022/06/19 04:49:11;;;;;;;2.83;2.25;;;;;;;18.61;100.00;99762.81;6134946;28;20171;-93
2022/06/19 04:52:12;;;;;;;2.30;1.88;;;;;;;18.65;100.00;99808.59;6143826;28;20054;-93
2022/06/19 04:55:15;;;;;;;2.22;1.75;;;;;;;18.85;100.00;99779.09;6142175;28;20656;-94
2022/06/19 04:58:22;;;;;;;4.53;2.13;;;;;;;18.68;100.00;99745.31;6136470;28;20047;-93
2022/06/19 05:01:33;;;;;;;3.85;2.13;;;;;;;18.71;100.00;99773.75;6132745;28;20408;-94
2022/06/19 05:04:35;;;;;;;2.05;1.85;;;;;;;18.73;100.00;99797.97;6149958;28;20043;-93
2022/06/19 05:07:37;;;;;;;3.97;1.80;;;;;;;18.78;100.00;99814.97;6132105;28;20133;-93
2022/06/19 05:10:41;;;;;;;3.58;1.70;;;;;;;18.77;100.00;99800.25;6156772;28;20050;-93
2022/06/19 05:13:43;;;;;;;2.00;1.77;;;;;;;18.86;100.00;99768.44;6154743;28;20424;-93
2022/06/19 05:16:45;;;;;;;1.80;1.52;;;;;;;18.83;100.00;99805.53;6147460;28;20506;-93
2022/06/19 05:19:48;;;;;;;4.85;1.80;;;;;;;18.95;99.87;99808.41;6149387;28;20047;-94
2022/06/19 05:22:50;;;;;;;2.95;1.73;;;;;;;18.89;100.00;99781.16;6149251;28;20062;-93
2022/06/19 05:26:07;;;;;;;2.97;1.70;;;;;;;18.90;98.23;99810.78;6128058;28;20067;-93
2022/06/19 05:29:09;;;;;;;1.58;1.48;;;;;;;18.89;97.46;99782.97;6149838;28;20052;-92
2022/06/19 05:32:11;;;;;;;3.22;1.63;;;;;;;18.91;98.31;99787.00;6135580;28;20493;-92
2022/06/19 05:35:13;;;;;;;3.47;1.70;;;;;;;18.96;97.08;99775.16;6139013;28;20059;-93
2022/06/19 05:38:15;;;;;;;2.40;1.55;;;;;;;18.99;99.25;99785.25;6144940;28;20472;-93
2022/06/19 05:41:18;;;;;;;2.17;1.67;;;;;;;19.00;97.75;99787.66;6140664;28;20047;-92
2022/06/19 05:44:20;;;;;;;3.65;1.60;;;;;;;19.08;95.25;99805.03;6138441;28;20047;-94
2022/06/19 05:47:22;;;;;;;1.58;1.35;;;;;;;19.01;93.47;99805.03;6136581;28;20050;-92
2022/06/19 05:50:25;;;;;;;1.88;1.48;;;;;;;18.89;93.75;99798.69;6152068;28;20061;-92
2022/06/19 05:53:30;;;;;;;2.45;1.60;;;;;;;18.73;92.12;99811.09;6138300;28;20061;-91
2022/06/19 05:56:32;;;;;;;3.15;1.52;;;;;;;18.62;93.03;99808.19;6141166;28;20039;-93
2022/06/19 05:59:34;;;;;;;5.38;1.65;;;;;;;18.54;90.20;99829.31;6143378;28;20065;-93
2022/06/19 06:02:36;;;;;;;4.45;1.65;;;;;;;18.40;89.98;99826.56;6128358;28;20055;-91
2022/06/19 06:05:42;;;;;;;3.95;1.73;;;;;;;18.46;89.24;99828.44;6135405;28;20051;-93
2022/06/19 06:08:46;;;;;;;7.03;1.83;;;;;;;18.40;88.65;99841.47;6147349;28;20493;-93
2022/06/19 06:11:48;;;;;;;5.00;1.80;;;;;;;18.39;87.71;99842.50;6135315;28;20043;-92
2022/06/19 06:14:50;;;;;;;5.55;2.00;;;;;;;18.33;84.58;99851.09;6131140;28;20051;-91
2022/06/19 06:17:52;;;;;;;4.72;1.60;;;;;;;18.26;86.88;99846.63;6130031;28;20054;-92
2022/06/19 06:21:01;;;;;;;6.65;1.90;;;;;;;18.21;84.59;99851.59;6135863;28;20101;-91
2022/06/19 06:24:03;;;;;;;4.32;1.73;;;;;;;18.18;83.18;99843.28;6141864;28;20074;-90
2022/06/19 06:27:06;;;;;;;4.97;2.15;;;;;;;18.17;81.90;99858.22;6128549;28;20508;-91
2022/06/19 06:30:10;;;;;;;8.82;2.13;;;;;;;18.22;82.58;99860.28;6129433;28;20048;-92
2022/06/19 06:33:12;;;;;;;5.07;1.67;;;;;;;18.28;81.63;99842.00;6135982;28;20153;-91
2022/06/19 06:36:15;;;;;;;6.22;1.75;;;;;;;18.29;74.59;99835.75;6138423;28;20051;-91
2022/06/19 06:39:17;;;;;;;6.20;1.65;;;;;;;18.25;75.46;99838.94;6131037;28;20531;-92
2022/06/19 06:42:19;;;;;;;5.57;1.50;;;;;;;18.33;73.29;99848.47;6120798;28;20062;-92
2022/06/19 06:45:22;;;;;;;6.55;1.90;;;;;;;18.26;71.40;99809.09;6134061;28;20749;-90
2022/06/19 06:48:24;;;;;;;4.68;1.80;;;;;;;18.24;72.51;99819.78;6133905;28;20433;-92
2022/06/19 06:51:26;;;;;;;7.18;1.67;;;;;;;18.29;69.84;99830.50;6138721;28;20054;-91
2022/06/19 06:54:29;;;;;;;4.03;1.42;;;;;;;18.25;70.47;99815.34;6128048;28;20039;-91
2022/06/19 06:57:31;;;;;;;7.65;1.80;;;;;;;18.32;70.37;99791.84;6130181;28;20134;-92
2022/06/19 07:00:34;;;;;;;6.07;2.03;;;;;;;18.39;70.25;99805.81;6127382;28;20059;-92
2022/06/19 07:03:36;;;;;;;8.35;1.85;;;;;;;18.43;70.54;99817.50;6130347;28;20592;-90
2022/06/19 07:06:39;;;;;;;5.50;1.77;;;;;;;18.51;69.96;99818.19;6137660;28;20058;-90
2022/06/19 07:09:42;;;;;;;5.65;1.67;;;;;;;18.63;72.40;99817.66;6137929;28;20405;-90
2022/06/19 07:12:44;;;;;;;7.72;2.42;;;;;;;18.67;71.40;99811.84;6138129;28;20050;-92
2022/06/19 07:15:46;;;;;;;6.63;1.75;;;;;;;18.78;68.58;99820.19;6139705;28;20340;-93
2022/06/19 07:18:52;;;;;;;5.05;1.75;;;;;;;18.72;70.76;99830.44;6132117;28;20118;-90
2022/06/19 07:21:54;;;;;;;7.03;2.28;;;;;;;18.80;71.76;99826.06;6134405;28;20597;-91
2022/06/19 07:24:56;;;;;;;5.95;1.95;;;;;;;18.79;70.73;99816.59;6128767;28;20637;-91
2022/06/19 07:28:01;;;;;;;8.10;1.95;;;;;;;18.90;71.88;99827.34;6125433;28;20039;-91
2022/06/19 07:31:04;;;;;;;4.38;2.30;;;;;;;18.98;70.07;99836.06;6131546;28;20036;-92
2022/06/19 07:34:07;;;;;;;8.05;2.17;;;;;;;19.10;71.11;99827.44;6132656;28;20031;-92
2022/06/19 07:37:15;;;;;;;5.22;2.08;;;;;;;19.20;71.86;99823.66;6137687;28;20514;-91
2022/06/19 07:40:20;;;;;;;7.22;2.03;;;;;;;19.30;70.03;99821.50;6124138;28;20068;-92
2022/06/19 07:43:22;;;;;;;7.55;2.15;;;;;;;19.32;69.62;99807.16;6138782;28;20154;-92
2022/06/19 07:46:25;;;;;;;5.90;1.67;;;;;;;19.42;69.69;99821.75;6134503;28;20039;-91
2022/06/19 07:52:49;;;;;;;5.50;2.22;;;;;;;19.40;72.47;99760.75;6129346;28;20505;-91
2022/06/19 07:55:52;;;;;;;11.27;2.05;;;;;;;19.57;70.39;99796.94;6126177;28;20126;-92
2022/06/19 07:58:54;;;;;;;8.10;2.17;;;;;;;19.62;72.20;99795.56;6145163;28;20049;-91
2022/06/19 08:01:56;;;;;;;6.72;2.40;;;;;;;19.70;70.99;99774.38;6132277;28;20186;-92
2022/06/19 08:05:11;;;;;;;8.25;2.40;;;;;;;19.75;71.51;99799.06;6149401;28;20047;-91
2022/06/19 08:08:18;;;;;;;7.82;2.30;;;;;;;19.81;72.34;99773.81;6134431;28;20548;-91
2022/06/19 08:11:20;;;;;;;10.35;2.35;;;;;;;19.91;74.34;99778.69;6134281;28;20048;-91
2022/06/19 08:14:22;;;;;;;7.18;2.45;;;;;;;20.01;73.12;99776.47;6134052;28;20044;-91
2022/06/19 08:17:24;;;;;;;9.98;3.15;;;;;;;20.04;74.37;99762.91;6134272;28;20387;-92
2022/06/19 08:20:27;;;;;;;4.28;2.20;;;;;;;20.17;72.37;99759.47;6131594;28;20055;-91
2022/06/19 08:23:29;;;;;;;9.43;2.60;;;;;;;20.32;70.94;99789.00;6129477;28;20386;-91
2022/06/19 08:26:31;;;;;;;7.05;2.10;;;;;;;20.49;69.47;99820.94;6119250;28;20107;-91
2022/06/19 08:29:35;;;;;;;8.55;2.53;;;;;;;20.64;67.58;99850.50;6147215;28;20055;-90
2022/06/19 08:32:37;;;;;;;9.43;2.58;;;;;;;20.68;67.61;99863.25;6126648;28;20047;-92
2022/06/19 08:35:49;;;;;;;9.60;2.42;;;;;;;20.74;69.53;99876.38;6134413;28;20086;-91
2022/06/19 08:39:01;;;;;;;7.50;2.38;;;;;;;21.12;66.24;99852.03;6144543;28;20048;-91
2022/06/19 08:42:24;;;;;;;4.95;2.50;;;;;;;21.46;66.12;99864.09;6118979;28;20059;-91
2022/06/19 08:46:15;;;;;;;7.35;2.30;;;;;;;22.03;62.73;99866.84;6126092;28;20570;-90
2022/06/19 08:49:32;;;;;;;;;;;;;;;22.35;62.00;99874.78;6075099;29;20064;-90
2022/06/19 08:52:48;;;;;;;7.85;2.80;;;;;;;22.21;61.31;99874.06;6070992;29;20276;-92
2022/06/19 08:56:32;;;;;;;7.53;2.30;;;;;;;21.82;62.79;99875.88;6066907;29;20209;-90
2022/06/19 08:59:54;;;;;;;8.07;2.38;;;;;;;21.68;62.84;99879.59;6035331;29;20102;-92
2022/06/19 09:03:23;;;;;;;9.73;2.47;;;;;;;21.55;65.41;99893.66;6036517;29;20045;-91
2022/06/19 09:07:08;;;;;;;7.43;2.25;;;;;;;21.53;64.14;99890.41;6032862;29;20109;-91
2022/06/19 09:10:23;;;;;;;7.82;2.33;;;;;;;21.37;65.18;99896.13;6037158;29;20374;-90
2022/06/19 09:14:14;;;;;;;8.82;2.83;;;;;;;21.38;63.92;99906.41;6038504;29;20075;-91
2022/06/19 09:17:26;;;;;;;6.50;2.33;;;;;;;21.21;65.82;99928.94;6035289;29;20487;-96
2022/06/19 09:20:40;;;;;;;6.97;2.45;;;;;;;21.13;65.85;99940.50;6028268;29;20064;-94
2022/06/19 09:23:42;;;;;;;8.10;2.25;;;;;;;21.17;65.81;99948.81;6032186;29;20053;-92
2022/06/19 09:26:57;;;;;;;5.72;2.13;;;;;;;21.26;64.92;99951.00;6045284;29;20060;-92
2022/06/19 09:30:04;;;;;;;6.75;2.30;;;;;;;21.23;65.64;99979.56;6057171;29;20601;-91
2022/06/19 09:33:14;;;;;;;7.95;2.35;;;;;;;21.22;65.55;100002.47;6059052;29;20049;-90
2022/06/19 09:36:19;;;;;;;;;;;;;;;21.36;63.97;100018.22;6091690;28;20062;-92
2022/06/19 09:39:28;;;;;;;7.15;2.22;;;;;;;21.49;64.88;100007.72;6133079;28;19926;-91
2022/06/19 09:42:34;;;;;;;5.90;2.30;;;;;;;21.69;63.51;100011.13;6121303;28;20125;-91
2022/06/19 09:45:44;;;;;;;6.28;2.35;;;;;;;21.82;61.35;100014.75;6120458;28;20051;-91
2022/06/19 09:49:06;;;;;;;8.95;2.95;;;;;;;22.01;60.68;100005.97;6124967;28;20134;-92
2022/06/19 09:52:23;;;;;;;10.02;2.70;;;;;;;22.15;60.39;99994.31;6126707;28;20039;-91
2022/06/19 09:55:40;;;;;;;7.32;2.55;;;;;;;22.44;59.00;100029.09;6130711;28;20837;-93
2022/06/19 09:58:46;;;;;;;13.77;3.25;;;;;;;22.66;58.44;100034.03;6124384;28;20473;-90
2022/06/19 10:01:56;;;;;;;8.45;3.17;;;;;;;22.91;56.37;100015.63;6130099;28;20043;-93
2022/06/19 10:05:20;;;;;;;7.43;2.42;;;;;;;22.82;55.72;100003.69;6122504;28;20046;-89
2022/06/19 10:08:43;;;;;;;9.43;2.58;;;;;;;23.11;55.72;100002.28;6124629;28;20094;-91
2022/06/19 10:11:56;;;;;;;8.45;2.85;;;;;;;23.03;54.69;100010.47;6123080;28;20461;-91
2022/06/19 10:15:04;;;;;;;9.27;2.67;;;;;;;22.84;55.19;99996.38;6125695;28;20050;-90
2022/06/19 10:18:30;;;;;;;8.82;2.22;;;;;;;22.81;56.59;99997.63;6132448;28;20515;-91
2022/06/19 10:25:19;;;;;;;13.48;3.88;;;;;;;22.76;55.97;100019.38;6131320;28;20069;-87
2022/06/19 10:28:33;;;;;;;7.60;3.22;;;;;;;22.93;57.76;100016.19;6132605;28;20040;-89
2022/06/19 10:31:46;;;;;;;7.32;2.22;;;;;;;22.80;54.37;100017.09;6121754;28;20692;-90
2022/06/19 10:35:09;;;;;;;9.80;2.75;;;;;;;22.69;56.75;100036.28;6126647;28;20417;-89
2022/06/19 10:38:44;;;;;;;9.90;3.08;;;;;;;23.01;55.99;100034.44;6130572;28;20039;-92
2022/06/19 10:42:01;;;;;;;4.93;2.10;;;;;;;23.07;53.81;100038.84;6122397;28;20574;-91
2022/06/19 10:45:25;;;;;;;7.38;2.70;;;;;;;23.10;53.99;100048.97;6125977;28;20537;-90
2022/06/19 10:48:50;;;;;;;9.45;2.67;;;;;;;23.34;54.03;100031.53;6120869;28;20102;-96
2022/06/19 10:52:37;;;;;;;9.13;2.80;;;;;;;23.46;55.31;100025.53;6056176;29;20454;-92
2022/06/19 10:56:06;;;;;;;10.02;2.83;;;;;;;23.67;53.10;100029.59;5974525;29;20074;-95
2022/06/19 10:59:09;;;;;;;10.18;3.28;;;;;;;23.75;52.83;100026.69;5962240;29;20057;-90
2022/06/19 11:06:19;;;;;;;7.15;2.40;;;;;;;24.31;51.74;100020.31;5952446;29;20078;-90
2022/06/19 11:09:55;;;;;;;7.93;2.47;;;;;;;24.49;51.66;100020.28;5953281;29;20146;-88
2022/06/19 11:13:07;;;;;;;8.20;2.85;;;;;;;24.86;49.94;100017.50;5952527;29;20054;-88
2022/06/19 11:16:10;;;;;;;6.38;2.35;;;;;;;25.11;48.62;99998.75;5953372;29;20089;-89
2022/06/19 11:19:34;;;;;;;6.55;2.47;;;;;;;25.39;48.29;99993.84;5950289;29;20075;-92
2022/06/19 11:22:47;;;;;;;9.10;2.45;;;;;;;25.55;46.27;99991.28;5953741;29;20093;-93
2022/06/19 11:26:00;;;;;;;5.72;2.20;;;;;;;25.65;45.71;99974.78;5955991;29;20093;-92
2022/06/19 11:29:18;;;;;;;8.45;2.40;;;;;;;25.61;45.63;99964.88;5984338;29;20085;-92
2022/06/19 11:32:22;;;;;;;6.35;2.17;;;;;;;25.43;46.61;99964.00;6057617;29;20067;-92
2022/06/19 11:35:35;;;;;;;5.65;2.30;;;;;;;25.47;46.61;99959.84;6076486;29;20067;-91
2022/06/19 11:38:39;;;;;;;7.20;2.88;;;;;;;25.86;44.86;99957.44;6131839;28;20047;-93
2022/06/19 11:41:41;;;;;;;9.23;2.40;;;;;;;26.18;45.30;99935.75;6131348;28;20047;-93
2022/06/19 11:44:52;;;;;;;6.65;2.55;;;;;;;26.48;43.03;99916.09;6126621;28;20082;-92
2022/06/19 11:47:54;;;;;;;3.30;2.15;;;;;;;26.60;43.20;99901.72;6131355;28;20466;-94
2022/06/19 11:50:57;;;;;;;9.35;2.45;;;;;;;26.65;43.74;99919.56;6129843;28;22043;-92
2022/06/19 11:54:00;;;;;;;11.13;4.15;;;;;;;26.62;43.19;99926.19;6121007;28;20214;-92
2022/06/19 11:57:03;;;;;;;14.23;6.95;;;;;;;26.78;43.47;99908.66;6129230;28;20047;-93
2022/06/19 12:00:06;;;;;;;6.70;2.60;;;;;;;26.71;43.04;99926.59;6125449;28;20050;-92
2022/06/19 12:03:28;;;;;;;7.75;2.17;;;;;;;26.51;43.10;99923.56;6131468;28;20066;-93
2022/06/19 12:06:57;;;;;;;8.85;2.70;;;;;;;26.29;42.63;99942.88;6125080;28;20042;-93
2022/06/19 12:10:02;;;;;;;4.93;2.45;;;;;;;26.43;43.89;99948.66;6133032;28;20133;-93
2022/06/19 12:13:18;;;;;;;5.85;2.40;;;;;;;26.22;44.54;99958.13;6126658;28;20070;-93
2022/06/19 12:16:23;;;;;;;7.55;2.33;;;;;;;26.17;43.70;99942.91;6129879;28;20055;-96
2022/06/19 12:19:30;;;;;;;6.68;2.30;;;;;;;26.07;45.97;99947.25;6127336;28;20520;-96
2022/06/19 12:22:57;;;;;;;6.95;2.70;;;;;;;26.34;44.30;99944.81;6133444;28;20054;-92
2022/06/19 12:26:11;;;;;;;17.92;10.98;;;;;;;26.65;43.76;99924.88;6127175;28;20047;-92
2022/06/19 12:29:36;;;;;;;8.02;2.65;;;;;;;27.09;42.41;99924.22;6129007;28;20047;-89
2022/06/19 12:32:43;;;;;;;5.50;2.00;;;;;;;26.87;42.91;99930.28;6138333;28;20393;-94
2022/06/19 12:35:48;;;;;;;8.38;2.58;;;;;;;26.39;43.69;99952.84;6132530;28;20047;-94
2022/06/19 12:38:51;;;;;;;6.55;2.53;;;;;;;25.83;44.61;99933.25;6130850;28;20050;-92
2022/06/19 12:42:12;;;;;;;5.55;2.40;;;;;;;25.66;45.93;99882.81;6133488;28;20039;-92
2022/06/19 12:45:33;;;;;;;5.55;2.25;;;;;;;25.83;46.47;99869.59;6132920;28;20046;-93
2022/06/19 12:49:02;;;;;;;7.57;2.25;;;;;;;26.56;44.56;99876.72;6132416;28;20394;-93
2022/06/19 12:52:26;;;;;;;6.60;3.90;;;;;;;26.98;42.92;99905.47;6131656;28;20396;-93
2022/06/19 12:55:46;;;;;;;7.93;2.83;;;;;;;27.00;42.19;99921.94;6129736;28;20039;-93
2022/06/19 12:59:20;;;;;;;6.82;2.80;;;;;;;27.28;44.47;99918.38;6123384;28;20556;-94
2022/06/19 13:02:33;;;;;;;5.10;2.47;;;;;;;27.67;42.67;99915.63;6119297;28;20379;-93
2022/06/19 13:06:00;;;;;;;5.85;2.85;;;;;;;27.75;41.21;99924.22;6120219;28;20134;-93
2022/06/19 13:09:39;;;;;;;7.00;2.92;;;;;;;27.92;41.58;99911.66;6125112;28;20620;-93
2022/06/19 13:12:53;;;;;;;7.85;2.75;;;;;;;28.05;41.13;99902.47;6126341;28;20138;-93
2022/06/19 13:15:58;;;;;;;5.88;2.63;;;;;;;28.04;41.87;99922.16;6125948;28;20094;-91
2022/06/19 13:19:19;;;;;;;7.03;2.47;;;;;;;28.39;39.86;99926.22;6139498;28;20580;-91
2022/06/19 13:22:43;;;;;;;4.57;2.40;;;;;;;28.40;39.61;99925.13;6125819;28;20074;-92
2022/06/19 13:26:04;;;;;;;199.98;134.70;;;;;;;28.44;40.43;99927.03;6140867;28;20064;-91
2022/06/19 13:29:37;;;;;;;11.77;7.00;;;;;;;28.39;40.36;99958.94;6117209;28;20143;-91
2022/06/19 13:32:48;;;;;;;8.75;3.00;;;;;;;27.87;40.99;99972.81;6119751;28;20574;-91
2022/06/19 13:36:00;;;;;;;6.65;2.88;;;;;;;27.58;41.20;99970.31;6137385;28;20046;-91
2022/06/19 13:39:32;;;;;;;5.68;2.67;;;;;;;27.88;40.54;99987.72;6133350;28;20059;-92
2022/06/19 13:42:42;;;;;;;9.18;2.67;;;;;;;28.20;40.91;99981.66;6134707;28;20162;-91
2022/06/19 13:45:55;;;;;;;;;;;;;;;28.27;40.12;99987.59;6130923;28;20082;-91
2022/06/19 13:49:09;;;;;;;16.95;12.45;;;;;;;28.19;42.06;99978.19;6126818;28;19927;-91
2022/06/19 13:52:40;;;;;;;10.55;5.78;;;;;;;28.25;38.28;99982.53;6136348;28;20047;-92
2022/06/19 13:55:47;;;;;;;10.93;6.57;;;;;;;27.54;41.03;99989.69;6119697;28;20451;-91
2022/06/19 13:58:56;;;;;;;12.35;5.57;;;;;;;26.68;40.41;99998.75;6120658;28;20040;-92
2022/06/19 14:02:24;;;;;;;6.72;2.30;;;;;;;25.78;40.70;100022.25;6130369;28;20051;-94
2022/06/19 14:05:45;;;;;;;7.25;2.05;;;;;;;25.04;42.59;100016.63;6123122;28;20503;-92
2022/06/19 14:08:57;;;;;;;4.40;1.88;;;;;;;24.86;42.28;100051.91;6130929;28;20134;-91
2022/06/19 14:12:08;;;;;;;8.32;2.55;;;;;;;24.50;43.67;100026.41;6122842;28;20067;-92
2022/06/19 14:15:22;;;;;;;6.43;2.00;;;;;;;24.36;43.93;100035.50;6125939;28;20119;-91
2022/06/19 14:19:02;;;;;;;4.70;2.05;;;;;;;24.08;44.79;100055.41;6138172;28;20492;-91
2022/06/19 14:22:07;;;;;;;;;;;;;;;23.49;46.10;100070.00;6134435;28;20140;-92
2022/06/19 14:25:36;;;;;;;7.03;1.98;;;;;;;23.25;47.44;100084.84;6126127;28;19931;-90
2022/06/19 14:29:14;;;;;;;6.45;1.73;;;;;;;23.19;47.17;100111.06;6129491;28;20051;-92
2022/06/19 14:32:26;;;;;;;6.63;1.98;;;;;;;23.55;46.42;100121.97;6131768;28;20071;-93
2022/06/19 14:35:34;;;;;;;4.45;1.90;;;;;;;24.02;44.83;100132.94;6128833;28;20043;-94
2022/06/19 14:38:37;;;;;;;4.30;1.63;;;;;;;24.16;44.49;100149.50;6121252;28;20051;-90
2022/06/19 14:41:40;;;;;;;8.90;2.20;;;;;;;23.85;44.72;100154.69;6120089;28;20039;-91
2022/06/19 14:44:51;;;;;;;9.75;2.25;;;;;;;23.86;45.48;100156.28;6122992;28;20417;-90
2022/06/19 14:48:14;;;;;;;4.50;1.60;;;;;;;23.92;45.74;100157.25;6119580;28;20054;-89
2022/06/19 14:51:20;;;;;;;9.23;1.88;;;;;;;23.95;46.04;100167.41;6133574;28;20052;-91
2022/06/19 14:54:51;;;;;;;5.82;1.90;;;;;;;23.85;46.05;100162.63;6121552;28;20497;-88
2022/06/19 14:57:59;;;;;;;5.28;2.13;;;;;;;23.78;47.69;100175.06;6124554;28;20046;-90
2022/06/19 15:01:02;;;;;;;4.55;2.13;;;;;;;23.85;46.04;100181.13;6122262;28;20070;-90